Time;durP1;ratioP1;P1;durP2;ratioP2;P2;SDS_P1;SDS_P2;PMS_P1;PMS_P2;Temp;Humidity;BMP_temperature;BMP_pressure;BME280_temperature;BME280_humidity;BME280_pressure;Samples;Min_cycle;Max_cycle;Signal;HPM_P1;HPM_P2
2023/12/01 00:01:09;;;;;;;46.30;25.67;;;;;;;-0.05;76.98;99102.84;5116379;27;20208;-72
2023/12/01 00:03:37;;;;;;;43.50;26.03;;;;;;;-0.14;77.23;99107.78;5126873;27;20636;-74
2023/12/01 00:06:06;;;;;;;40.93;24.40;;;;;;;-0.18;76.91;99111.09;5100421;28;20205;-72
2023/12/01 00:08:35;;;;;;;42.77;24.50;;;;;;;-0.20;77.24;99104.28;5104359;27;20242;-71
2023/12/01 00:11:05;;;;;;;42.30;24.70;;;;;;;-0.16;77.45;99113.66;5124789;27;20212;-72
2023/12/01 00:13:33;;;;;;;42.20;25.07;;;;;;;-0.14;77.72;99115.38;5119702;27;20573;-72
2023/12/01 00:16:01;;;;;;;45.00;25.03;;;;;;;-0.11;77.62;99109.50;5121801;27;20235;-72
2023/12/01 00:18:29;;;;;;;39.80;24.27;;;;;;;-0.06;77.40;99112.97;5123205;27;20204;-72
2023/12/01 00:20:58;;;;;;;43.97;24.77;;;;;;;-0.07;77.39;99099.47;5112586;27;20231;-75
2023/12/01 00:23:26;;;;;;;46.30;25.07;;;;;;;-0.08;77.14;99112.94;5109852;27;20544;-72
2023/12/01 00:25:54;;;;;;;44.53;24.77;;;;;;;-0.06;77.16;99116.34;5125089;27;20238;-70
2023/12/01 00:28:24;;;;;;;44.93;24.13;;;;;;;-0.07;77.29;99118.88;5111924;28;20298;-72
2023/12/01 00:30:52;;;;;;;40.70;24.37;;;;;;;-0.08;76.96;99115.47;5121823;27;20199;-72
2023/12/01 00:33:20;;;;;;;41.03;24.73;;;;;;;-0.06;76.86;99116.34;5116038;27;20208;-70
2023/12/01 00:35:49;;;;;;;38.83;23.27;;;;;;;-0.07;76.78;99114.66;5103913;27;20211;-72
2023/12/01 00:38:17;;;;;;;42.97;25.83;;;;;;;-0.06;77.06;99112.97;5107051;28;20311;-70
2023/12/01 00:40:45;;;;;;;46.20;25.13;;;;;;;-0.09;76.87;99120.50;5117661;27;20196;-72
2023/12/01 00:43:13;;;;;;;42.13;24.57;;;;;;;-0.11;76.58;99127.22;5124184;27;20231;-75
2023/12/01 00:45:43;;;;;;;46.27;24.90;;;;;;;-0.13;77.77;99129.72;5111900;27;20234;-73
2023/12/01 00:48:11;;;;;;;42.33;25.27;;;;;;;-0.13;77.17;99121.28;5109572;28;20216;-72
2023/12/01 00:50:40;;;;;;;39.83;23.63;;;;;;;-0.11;76.68;99112.91;5108147;27;20204;-72
2023/12/01 00:53:09;;;;;;;41.77;24.07;;;;;;;-0.14;76.50;99125.50;5124099;27;20678;-70
2023/12/01 00:55:37;;;;;;;44.40;26.53;;;;;;;-0.12;76.53;99135.66;5104280;28;20643;-69
2023/12/01 00:58:05;;;;;;;44.37;25.97;;;;;;;-0.15;76.65;99131.38;5107740;27;20196;-69
2023/12/01 01:00:33;;;;;;;46.90;26.70;;;;;;;-0.14;76.74;99122.97;5122760;27;20560;-68
2023/12/01 01:03:02;;;;;;;45.40;25.43;;;;;;;-0.10;76.88;99123.88;5111129;27;20212;-67
2023/12/01 01:05:31;;;;;;;46.23;25.33;;;;;;;-0.10;76.86;99129.78;5110551;27;20205;-69
2023/12/01 01:07:59;;;;;;;45.17;26.00;;;;;;;-0.09;76.97;99135.69;5113398;27;20306;-68
2023/12/01 01:10:27;;;;;;;46.07;24.80;;;;;;;-0.08;76.90;99130.66;5113022;27;20241;-68
2023/12/01 01:12:55;;;;;;;47.73;25.27;;;;;;;-0.10;76.71;99124.72;5123308;27;20207;-69
2023/12/01 01:15:23;;;;;;;45.53;26.23;;;;;;;-0.11;76.49;99117.09;5105301;27;20706;-67
2023/12/01 01:17:51;;;;;;;47.10;25.03;;;;;;;-0.11;76.38;99117.97;5105156;27;20222;-66
2023/12/01 01:20:21;;;;;;;44.07;25.23;;;;;;;-0.09;76.16;99126.41;5114675;27;20200;-70
2023/12/01 01:22:49;;;;;;;45.20;26.10;;;;;;;-0.07;76.50;99119.72;5127249;27;20662;-68
2023/12/01 01:25:17;;;;;;;47.43;26.73;;;;;;;-0.07;76.33;99114.66;5103038;27;20196;-66
2023/12/01 01:27:45;;;;;;;45.50;25.17;;;;;;;-0.05;76.03;99117.19;5120853;27;20199;-67
2023/12/01 01:30:13;;;;;;;40.67;25.07;;;;;;;-0.04;75.83;99106.22;5114778;27;20655;-67
2023/12/01 01:32:41;;;;;;;40.63;24.77;;;;;;;-0.02;76.03;99110.50;5111991;27;20666;-67
2023/12/01 01:35:10;;;;;;;41.57;24.63;;;;;;;-0.01;76.30;99104.59;5112297;27;20204;-67
2023/12/01 01:37:40;;;;;;;42.47;24.73;;;;;;;0.02;76.08;99088.59;5113427;27;20206;-68
2023/12/01 01:40:11;;;;;;;41.93;23.37;;;;;;;0.03;75.94;99099.59;5118964;27;20590;-66
2023/12/01 01:42:39;;;;;;;43.47;23.80;;;;;;;0.00;75.77;99090.28;5116836;27;20204;-68
2023/12/01 01:45:08;;;;;;;42.40;24.30;;;;;;;-0.01;75.25;99103.75;5123502;27;20284;-67
2023/12/01 01:47:36;;;;;;;40.60;23.83;;;;;;;-0.02;75.58;99100.38;5112460;28;20207;-67
2023/12/01 01:50:07;;;;;;;40.80;24.90;;;;;;;-0.03;75.91;99098.69;5129182;27;20208;-66
2023/12/01 01:52:37;;;;;;;42.63;25.50;;;;;;;-0.01;75.43;99099.53;5118579;27;20212;-67
2023/12/01 01:55:09;;;;;;;42.13;24.57;;;;;;;0.00;75.78;99108.00;5114182;27;20727;-68
2023/12/01 01:57:38;;;;;;;39.73;23.13;;;;;;;-0.03;75.16;99111.34;5111460;27;20200;-68
2023/12/01 02:00:07;;;;;;;41.37;23.40;;;;;;;-0.05;75.74;99109.59;5122603;27;20201;-69
2023/12/01 02:02:36;;;;;;;44.67;23.93;;;;;;;-0.05;75.53;99107.06;5120041;27;20701;-72
2023/12/01 02:05:12;;;;;;;44.50;23.90;;;;;;;-0.09;74.79;99111.22;5111970;27;20213;-73
2023/12/01 02:07:42;;;;;;;39.50;23.33;;;;;;;-0.13;75.08;99113.69;5105477;27;20610;-73
2023/12/01 02:10:16;;;;;;;44.97;25.33;;;;;;;-0.19;75.18;99108.53;5112080;27;20242;-74
2023/12/01 02:12:45;;;;;;;38.60;23.80;;;;;;;-0.24;74.97;99108.44;5113197;27;20203;-73
2023/12/01 02:15:14;;;;;;;38.10;23.60;;;;;;;-0.28;74.63;99109.25;5115522;27;20235;-74
2023/12/01 02:17:42;;;;;;;38.50;22.90;;;;;;;-0.37;75.29;99098.94;5111411;27;20208;-72
2023/12/01 02:20:14;;;;;;;42.80;22.90;;;;;;;-0.38;74.79;99117.50;5119015;27;20257;-72
2023/12/01 02:22:46;;;;;;;44.90;23.93;;;;;;;-0.45;75.33;99103.03;5116903;27;20580;-72
2023/12/01 02:25:14;;;;;;;39.73;23.60;;;;;;;-0.44;75.09;99114.84;5119947;27;20697;-72
2023/12/01 02:27:42;;;;;;;42.37;24.73;;;;;;;-0.46;75.30;99113.97;5114693;27;20206;-71
2023/12/01 02:30:11;;;;;;;43.07;24.10;;;;;;;-0.48;75.61;99119.00;5105053;27;20238;-69
2023/12/01 02:32:39;;;;;;;40.43;24.80;;;;;;;-0.50;75.57;99120.66;5109002;27;20200;-74
2023/12/01 02:35:09;;;;;;;46.77;25.03;;;;;;;-0.52;75.53;99128.22;5098000;28;20250;-72
2023/12/01 02:37:38;;;;;;;43.63;24.10;;;;;;;-0.54;75.46;99127.34;5112284;27;20646;-73
2023/12/01 02:40:15;;;;;;;43.73;24.77;;;;;;;-0.59;75.59;99110.38;5110593;27;20200;-73
2023/12/01 02:42:49;;;;;;;42.73;24.27;;;;;;;-0.65;75.51;99108.59;5116630;27;20548;-73
2023/12/01 02:45:18;;;;;;;40.90;24.53;;;;;;;-0.69;75.81;99106.84;5112182;28;20200;-73
2023/12/01 02:47:47;;;;;;;43.10;24.47;;;;;;;-0.73;75.91;99105.94;5114934;27;20229;-70
2023/12/01 02:50:16;;;;;;;42.33;24.40;;;;;;;-0.75;75.66;99101.66;5124085;27;20243;-73
2023/12/01 02:52:45;;;;;;;43.70;24.77;;;;;;;-0.76;75.90;99115.13;5124576;28;20670;-73
2023/12/01 02:55:14;;;;;;;43.37;24.20;;;;;;;-0.84;75.44;99111.63;5109370;28;20212;-72
2023/12/01 02:57:43;;;;;;;43.47;23.63;;;;;;;-0.90;75.31;99112.34;5118765;28;20208;-69
2023/12/01 03:00:13;;;;;;;38.90;23.23;;;;;;;-0.95;75.68;99113.94;5116098;28;20223;-72
2023/12/01 03:02:41;;;;;;;43.60;23.83;;;;;;;-1.00;75.96;99116.34;5117638;28;20227;-73
2023/12/01 03:05:10;;;;;;;42.90;24.30;;;;;;;-1.00;75.97;99120.56;5122577;28;20262;-71
2023/12/01 03:07:39;;;;;;;45.30;24.57;;;;;;;-1.03;76.02;99118.84;5110706;27;20546;-72
2023/12/01 03:10:08;;;;;;;45.77;24.23;;;;;;;-1.03;76.19;99116.31;5104470;28;20230;-73
2023/12/01 03:12:39;;;;;;;42.50;24.27;;;;;;;-1.03;76.16;99123.03;5111716;28;20708;-73
2023/12/01 03:15:09;;;;;;;45.67;24.50;;;;;;;-1.08;76.33;99122.94;5112944;28;20263;-74
2023/12/01 03:17:38;;;;;;;44.10;24.70;;;;;;;-1.07;76.25;99128.84;5105229;28;20199;-73
2023/12/01 03:20:09;;;;;;;47.00;25.97;;;;;;;-1.18;76.28;99136.19;5118434;28;20287;-74
2023/12/01 03:22:39;;;;;;;45.07;24.17;;;;;;;-1.18;76.59;99140.41;5116793;27;20718;-74
2023/12/01 03:25:09;;;;;;;44.50;26.03;;;;;;;-1.22;76.32;99134.44;5115747;28;20660;-73
2023/12/01 03:27:41;;;;;;;44.50;25.03;;;;;;;-1.29;76.63;99135.13;5122055;27;20218;-73
2023/12/01 03:30:13;;;;;;;43.70;24.73;;;;;;;-1.30;76.92;99135.97;5118026;27;20229;-74
2023/12/01 03:32:45;;;;;;;43.90;24.83;;;;;;;-1.33;76.40;99129.16;5114139;27;20208;-74
2023/12/01 03:35:15;;;;;;;44.83;23.87;;;;;;;-1.37;76.54;99132.44;5114454;27;20205;-73
2023/12/01 03:37:45;;;;;;;46.40;25.67;;;;;;;-1.41;76.64;99139.94;5111228;27;20208;-74
2023/12/01 03:40:13;;;;;;;43.60;25.63;;;;;;;-1.45;76.58;99146.59;5121316;27;20204;-74
2023/12/01 03:42:45;;;;;;;46.93;27.07;;;;;;;-1.48;76.37;99139.78;5119367;27;20192;-73
2023/12/01 03:45:14;;;;;;;46.27;25.87;;;;;;;-1.52;76.58;99140.53;5113513;27;20261;-73
2023/12/01 03:47:44;;;;;;;45.43;25.50;;;;;;;-1.54;77.03;99152.31;5101194;28;20303;-74
2023/12/01 03:50:12;;;;;;;49.67;26.73;;;;;;;-1.56;76.69;99148.88;5121103;27;20219;-73
2023/12/01 03:52:42;;;;;;;45.43;26.03;;;;;;;-1.56;77.12;99151.41;5114991;27;20204;-72
2023/12/01 03:55:11;;;;;;;43.97;24.70;;;;;;;-1.58;77.39;99154.75;5106126;27;20202;-73
2023/12/01 03:57:40;;;;;;;50.17;26.97;;;;;;;-1.54;77.91;99161.56;5124357;27;20195;-72
2023/12/01 04:00:13;;;;;;;49.87;26.70;;;;;;;-1.54;78.09;99147.25;5121020;27;20229;-74
2023/12/01 04:02:43;;;;;;;41.43;26.17;;;;;;;-1.45;77.70;99146.59;5120502;27;20558;-73
2023/12/01 04:05:17;;;;;;;48.50;26.17;;;;;;;-1.41;77.27;99145.84;5116261;28;20503;-72
2023/12/01 04:07:50;;;;;;;50.43;25.97;;;;;;;-1.38;77.31;99147.59;5115515;27;20543;-71
2023/12/01 04:10:21;;;;;;;46.43;25.67;;;;;;;-1.39;77.21;99148.41;5113643;27;20212;-73
2023/12/01 04:12:49;;;;;;;45.00;25.37;;;;;;;-1.43;76.57;99151.69;5133350;27;20200;-73
2023/12/01 04:15:20;;;;;;;43.10;24.83;;;;;;;-1.44;77.34;99152.50;5118350;27;20240;-73
2023/12/01 04:17:50;;;;;;;44.47;24.63;;;;;;;-1.48;76.64;99147.38;5119140;27;20226;-74
2023/12/01 04:20:22;;;;;;;45.97;25.77;;;;;;;-1.51;77.16;99142.28;5126150;27;20203;-73
2023/12/01 04:22:52;;;;;;;45.83;24.97;;;;;;;-1.55;76.81;99140.47;5124338;27;20199;-71
2023/12/01 04:25:20;;;;;;;46.23;25.40;;;;;;;-1.59;76.65;99133.66;5114893;27;20262;-72
2023/12/01 04:27:49;;;;;;;46.43;26.13;;;;;;;-1.61;76.66;99134.44;5132189;27;20283;-70
2023/12/01 04:30:20;;;;;;;47.90;26.00;;;;;;;-1.71;77.00;99123.28;5116782;27;20253;-74
2023/12/01 04:32:52;;;;;;;53.13;26.30;;;;;;;-1.79;76.82;99119.75;5121425;27;20204;-70
2023/12/01 04:35:24;;;;;;;42.43;24.53;;;;;;;-1.86;76.79;99126.31;5099499;28;20257;-72
2023/12/01 04:37:54;;;;;;;42.90;25.40;;;;;;;-1.93;76.89;99119.41;5114669;27;20719;-66
2023/12/01 04:40:23;;;;;;;46.67;25.87;;;;;;;-1.92;76.78;99118.59;5123203;27;20629;-68
2023/12/01 04:42:52;;;;;;;42.37;25.53;;;;;;;-1.96;77.04;99122.72;5121947;27;20212;-66
2023/12/01 04:45:24;;;;;;;53.63;26.27;;;;;;;-2.05;76.95;99129.22;5115208;27;20540;-67
2023/12/01 04:47:54;;;;;;;46.87;27.07;;;;;;;-2.09;77.39;99130.81;5118473;27;20207;-68
2023/12/01 04:50:25;;;;;;;51.67;27.07;;;;;;;-2.14;77.35;99136.56;5106942;27;20227;-69
2023/12/01 04:52:54;;;;;;;55.97;28.53;;;;;;;-2.19;77.34;99129.75;5103062;27;20235;-67
2023/12/01 04:55:24;;;;;;;46.83;26.27;;;;;;;-2.19;76.77;99138.97;5115004;27;20214;-68
2023/12/01 04:57:52;;;;;;;47.83;27.23;;;;;;;-2.22;77.07;99139.75;5123891;27;20204;-68
2023/12/01 05:00:25;;;;;;;43.97;24.43;;;;;;;-2.23;77.43;99142.25;5118774;27;20196;-68
2023/12/01 05:02:55;;;;;;;46.73;25.47;;;;;;;-2.24;77.57;99145.59;5109503;27;20200;-66
2023/12/01 05:05:24;;;;;;;45.83;25.70;;;;;;;-2.22;77.36;99154.03;5125421;27;20734;-66
2023/12/01 05:07:57;;;;;;;45.57;25.47;;;;;;;-2.20;77.17;99154.94;5121420;27;20222;-68
2023/12/01 05:10:27;;;;;;;49.60;24.93;;;;;;;-2.16;76.67;99153.34;5112886;28;20208;-67
2023/12/01 05:12:58;;;;;;;46.77;25.87;;;;;;;-2.15;77.17;99150.84;5119541;27;20204;-66
2023/12/01 05:15:29;;;;;;;47.07;25.60;;;;;;;-2.11;76.74;99147.59;5124679;27;20331;-67
2023/12/01 05:17:58;;;;;;;43.80;24.27;;;;;;;-2.10;76.75;99149.31;5118504;27;20207;-68
2023/12/01 05:20:28;;;;;;;42.70;23.47;;;;;;;-2.11;76.62;99147.59;5105538;27;20555;-67
2023/12/01 05:22:57;;;;;;;42.43;23.63;;;;;;;-2.15;76.50;99153.38;5115684;27;20723;-66
2023/12/01 05:25:26;;;;;;;46.40;24.87;;;;;;;-2.20;76.76;99152.41;5103924;27;20568;-71
2023/12/01 05:27:55;;;;;;;43.67;24.33;;;;;;;-2.14;76.98;99152.56;5124383;27;20249;-66
2023/12/01 05:30:28;;;;;;;46.33;25.00;;;;;;;-2.12;76.33;99155.97;5125442;27;20697;-66
2023/12/01 05:32:59;;;;;;;46.97;26.20;;;;;;;-2.11;76.45;99167.78;5112270;27;20204;-74
2023/12/01 05:35:27;;;;;;;49.37;26.67;;;;;;;-2.15;75.59;99166.00;5103029;28;20200;-73
2023/12/01 05:37:56;;;;;;;53.13;25.83;;;;;;;-2.23;75.59;99167.47;5111060;28;20269;-74
2023/12/01 05:40:26;;;;;;;55.20;27.00;;;;;;;-2.30;75.65;99165.63;5107862;27;20200;-72
2023/12/01 05:42:57;;;;;;;52.13;26.30;;;;;;;-2.37;76.10;99174.69;5107018;27;20200;-74
2023/12/01 05:45:26;;;;;;;59.70;27.40;;;;;;;-2.44;75.91;99182.91;5142577;27;20657;-74
2023/12/01 05:47:58;;;;;;;49.97;26.97;;;;;;;-2.48;76.13;99186.16;5094727;28;20295;-74
2023/12/01 05:50:28;;;;;;;51.27;26.13;;;;;;;-2.56;75.81;99193.53;5120773;27;20226;-71
2023/12/01 05:52:57;;;;;;;51.10;24.43;;;;;;;-2.57;76.47;99199.41;5127592;27;20203;-76
2023/12/01 05:55:28;;;;;;;53.13;26.33;;;;;;;-2.62;76.15;99205.13;5120144;27;20200;-74
2023/12/01 05:57:57;;;;;;;49.97;25.87;;;;;;;-2.61;77.05;99200.13;5099770;28;20210;-73
2023/12/01 06:00:29;;;;;;;53.03;26.60;;;;;;;-2.64;76.25;99219.34;5106218;27;20604;-72
2023/12/01 06:03:00;;;;;;;50.50;26.50;;;;;;;-2.68;77.13;99225.97;5112953;27;20680;-72
2023/12/01 06:05:29;;;;;;;65.13;26.20;;;;;;;-2.81;76.61;99236.53;5110587;28;20231;-72
2023/12/01 06:07:59;;;;;;;53.00;24.47;;;;;;;-2.87;77.12;99228.78;5114439;27;20211;-74
2023/12/01 06:10:29;;;;;;;48.10;22.90;;;;;;;-2.93;77.46;99235.34;5113442;27;20200;-73
2023/12/01 06:12:57;;;;;;;43.10;23.20;;;;;;;-2.99;78.08;99241.88;5115024;27;20249;-72
2023/12/01 06:15:29;;;;;;;52.03;25.17;;;;;;;-3.03;78.39;99245.97;5112038;27;20290;-72
2023/12/01 06:18:00;;;;;;;60.37;29.03;;;;;;;-3.03;78.60;99251.00;5112151;27;20207;-73
2023/12/01 06:20:30;;;;;;;54.60;26.23;;;;;;;-3.03;79.20;99252.69;5107668;27;20334;-72
2023/12/01 06:23:00;;;;;;;53.80;25.83;;;;;;;-2.99;78.75;99257.84;5107070;27;20287;-72
2023/12/01 06:25:31;;;;;;;62.43;27.53;;;;;;;-2.92;79.05;99272.34;5117432;27;20203;-72
2023/12/01 06:28:01;;;;;;;58.77;26.57;;;;;;;-2.85;79.30;99262.44;5116285;27;20248;-70
2023/12/01 06:30:33;;;;;;;62.87;28.97;;;;;;;-2.88;78.94;99274.97;5108280;27;20244;-67
2023/12/01 06:33:05;;;;;;;59.90;27.63;;;;;;;-2.98;79.67;99269.66;5121043;27;20248;-70
2023/12/01 06:35:33;;;;;;;60.53;28.20;;;;;;;-3.01;80.56;99268.72;5115918;27;20195;-65
2023/12/01 06:38:01;;;;;;;57.63;28.00;;;;;;;-3.04;80.77;99261.91;5122704;27;20203;-66
2023/12/01 06:40:33;;;;;;;58.27;27.90;;;;;;;-2.97;81.21;99268.84;5110265;27;20223;-66
2023/12/01 06:43:09;;;;;;;55.33;26.17;;;;;;;-2.99;80.73;99274.63;5108346;27;20273;-68
2023/12/01 06:45:39;;;;;;;57.17;27.13;;;;;;;-3.00;80.69;99271.25;5117649;27;20633;-70
2023/12/01 06:48:09;;;;;;;61.83;28.30;;;;;;;-3.01;81.23;99259.47;5113077;28;20208;-70
2023/12/01 06:50:37;;;;;;;50.53;24.60;;;;;;;-3.01;80.71;99256.97;5106478;27;20373;-73
2023/12/01 06:53:06;;;;;;;55.77;26.80;;;;;;;-3.03;81.53;99253.53;5116469;28;20246;-72
2023/12/01 06:55:35;;;;;;;56.00;26.23;;;;;;;-2.99;81.46;99257.00;5103972;28;20210;-72
2023/12/01 06:58:02;;;;;;;59.00;26.33;;;;;;;-3.02;80.88;99262.81;5117666;28;20196;-72
2023/12/01 07:00:33;;;;;;;55.83;26.90;;;;;;;-3.01;81.33;99262.00;5126243;28;20740;-71
2023/12/01 07:03:03;;;;;;;50.33;23.30;;;;;;;-2.98;81.29;99264.63;5108629;28;20210;-71
2023/12/01 07:05:35;;;;;;;53.17;24.67;;;;;;;-2.99;80.96;99257.84;5111990;28;20202;-70
2023/12/01 07:08:04;;;;;;;62.93;25.37;;;;;;;-2.93;80.67;99267.28;5117006;28;20200;-71
2023/12/01 07:10:33;;;;;;;55.67;25.20;;;;;;;-2.87;80.67;99266.56;5113605;28;20238;-76
2023/12/01 07:13:01;;;;;;;52.83;25.27;;;;;;;-2.87;80.79;99254.84;5108107;28;20684;-69
2023/12/01 07:15:29;;;;;;;54.80;25.27;;;;;;;-2.81;80.93;99252.50;5115835;28;20636;-72
2023/12/01 07:17:58;;;;;;;60.10;25.57;;;;;;;-2.77;80.65;99251.78;5121536;28;20630;-72
2023/12/01 07:20:26;;;;;;;51.23;26.23;;;;;;;-2.75;79.93;99252.69;5112862;28;20196;-74
2023/12/01 07:22:56;;;;;;;56.13;27.17;;;;;;;-2.76;79.72;99243.41;5110136;28;20211;-75
2023/12/01 07:25:25;;;;;;;53.20;26.10;;;;;;;-2.74;79.20;99245.97;5122878;27;20217;-74
2023/12/01 07:27:56;;;;;;;52.57;25.13;;;;;;;-2.79;78.91;99255.94;5119685;28;20679;-75
2023/12/01 07:30:27;;;;;;;55.60;24.83;;;;;;;-2.80;79.05;99249.19;5120995;28;20742;-76
2023/12/01 07:32:57;;;;;;;50.13;24.43;;;;;;;-2.84;79.42;99246.50;5110077;28;20255;-75
2023/12/01 07:35:25;;;;;;;48.83;23.20;;;;;;;-2.88;79.14;99253.13;5107306;28;20207;-76
2023/12/01 07:37:54;;;;;;;43.73;23.37;;;;;;;-2.90;79.05;99252.25;5112175;28;20212;-75
2023/12/01 07:40:24;;;;;;;46.73;21.90;;;;;;;-2.92;79.62;99254.69;5105435;28;20201;-76
2023/12/01 07:42:55;;;;;;;50.07;23.57;;;;;;;-2.92;78.83;99263.94;5116960;28;20207;-75
2023/12/01 07:45:24;;;;;;;50.00;24.47;;;;;;;-2.90;79.31;99264.00;5102566;27;20234;-74
2023/12/01 07:47:54;;;;;;;47.77;22.97;;;;;;;-2.89;79.08;99263.19;5118417;28;20626;-75
2023/12/01 07:50:25;;;;;;;48.13;23.73;;;;;;;-2.93;78.96;99268.13;5112280;28;20567;-74
2023/12/01 07:52:55;;;;;;;51.63;25.83;;;;;;;-2.93;78.37;99273.16;5121349;28;20208;-68
2023/12/01 07:55:26;;;;;;;46.07;23.30;;;;;;;-2.96;78.07;99278.09;5116638;28;20299;-68
2023/12/01 07:57:55;;;;;;;46.87;23.20;;;;;;;-3.02;77.83;99290.53;5120959;28;20771;-69
2023/12/01 08:00:23;;;;;;;49.77;23.77;;;;;;;-3.07;77.60;99291.19;5106889;28;20658;-65
2023/12/01 08:02:53;;;;;;;49.50;22.63;;;;;;;-3.14;77.63;99290.16;5111379;28;20611;-65
2023/12/01 08:05:23;;;;;;;45.77;22.93;;;;;;;-3.19;77.58;99290.00;5105916;28;20295;-69
2023/12/01 08:07:54;;;;;;;51.77;22.13;;;;;;;-3.20;77.98;99285.78;5113046;27;20215;-65
2023/12/01 08:10:28;;;;;;;49.63;23.77;;;;;;;-3.23;77.99;99284.84;5109052;27;20566;-68
2023/12/01 08:12:59;;;;;;;44.40;21.47;;;;;;;-3.19;78.36;99290.00;5117165;27;20228;-71
2023/12/01 08:15:29;;;;;;;45.17;21.70;;;;;;;-3.14;77.37;99296.84;5112383;27;20243;-67
2023/12/01 08:17:58;;;;;;;42.53;21.97;;;;;;;-3.08;77.93;99302.94;5116942;27;20645;-69
2023/12/01 08:20:28;;;;;;;47.67;22.73;;;;;;;-3.04;77.80;99304.75;5113969;27;20200;-66
2023/12/01 08:22:58;;;;;;;43.13;20.77;;;;;;;-3.04;76.86;99302.22;5109633;27;20250;-67
2023/12/01 08:25:29;;;;;;;44.03;22.30;;;;;;;-3.06;76.71;99303.81;5104076;27;20207;-65
2023/12/01 08:27:58;;;;;;;42.03;20.60;;;;;;;-3.11;76.46;99305.38;5093921;27;20900;-70
2023/12/01 08:30:27;;;;;;;41.63;20.07;;;;;;;-3.07;76.56;99302.13;5088925;27;20211;-69
2023/12/01 08:32:56;;;;;;;42.60;20.83;;;;;;;-3.07;76.84;99299.59;5097918;27;20236;-66
2023/12/01 08:35:24;;;;;;;43.57;20.20;;;;;;;-3.01;76.85;99299.81;5094087;27;20222;-67
2023/12/01 08:37:53;;;;;;;42.73;20.63;;;;;;;-2.96;76.36;99310.00;5098442;27;20291;-69
2023/12/01 08:40:22;;;;;;;45.07;21.50;;;;;;;-2.96;76.39;99313.38;5095280;28;20215;-66
2023/12/01 08:42:54;;;;;;;42.07;20.07;;;;;;;-3.00;76.33;99311.59;5108083;27;20224;-66
2023/12/01 08:45:22;;;;;;;40.43;20.13;;;;;;;-2.99;75.48;99317.47;5112269;27;20226;-68
2023/12/01 08:47:52;;;;;;;37.30;20.27;;;;;;;-2.96;76.18;99320.94;5110924;27;20283;-66
2023/12/01 08:50:21;;;;;;;43.83;21.50;;;;;;;-2.88;75.89;99317.81;5111214;27;20315;-69
2023/12/01 08:52:49;;;;;;;38.73;19.93;;;;;;;-2.86;75.01;99316.22;5097964;27;20596;-65
2023/12/01 08:55:17;;;;;;;39.10;19.40;;;;;;;-2.89;73.96;99329.56;5110638;27;20234;-65
2023/12/01 08:57:45;;;;;;;42.07;21.53;;;;;;;-2.93;73.73;99333.66;5114696;27;20206;-67
2023/12/01 09:00:20;;;;;;;43.67;21.40;;;;;;;-2.97;74.17;99336.03;5118386;27;20196;-69
2023/12/01 09:02:50;;;;;;;33.90;20.30;;;;;;;-2.99;74.01;99327.56;5103434;27;20266;-68
2023/12/01 09:05:19;;;;;;;39.27;19.33;;;;;;;-3.00;74.34;99316.63;5112848;27;20589;-69
2023/12/01 09:07:48;;;;;;;38.20;19.20;;;;;;;-3.00;73.93;99315.78;5125770;27;20290;-72
2023/12/01 09:10:16;;;;;;;38.27;19.57;;;;;;;-3.05;74.18;99318.16;5115897;27;20268;-69
2023/12/01 09:12:45;;;;;;;41.43;19.63;;;;;;;-3.02;74.24;99328.34;5104855;27;20223;-71
2023/12/01 09:15:15;;;;;;;38.87;19.30;;;;;;;-2.99;74.27;99337.63;5117878;27;20261;-68
2023/12/01 09:17:43;;;;;;;41.67;20.90;;;;;;;-2.99;73.59;99333.44;5106878;27;20211;-72
2023/12/01 09:20:12;;;;;;;42.23;20.20;;;;;;;-2.99;74.21;99332.59;5117447;27;20231;-68
2023/12/01 09:22:40;;;;;;;44.70;20.90;;;;;;;-2.99;74.14;99343.53;5109681;27;20237;-72
2023/12/01 09:25:09;;;;;;;39.13;19.90;;;;;;;-3.02;73.43;99352.66;5099344;27;20209;-69
2023/12/01 09:27:39;;;;;;;44.23;21.27;;;;;;;-3.00;73.70;99340.97;5093808;27;20203;-71
2023/12/01 09:30:13;;;;;;;44.73;19.93;;;;;;;-3.01;73.45;99334.22;5087766;27;20200;-73
2023/12/01 09:32:43;;;;;;;42.57;21.00;;;;;;;-3.05;73.84;99347.56;5102688;27;20219;-67
2023/12/01 09:35:11;;;;;;;40.23;19.73;;;;;;;-3.12;73.43;99354.06;5102510;27;20624;-68
2023/12/01 09:37:39;;;;;;;37.37;18.97;;;;;;;-3.16;73.79;99344.69;5117105;27;20223;-68
2023/12/01 09:40:08;;;;;;;38.50;18.77;;;;;;;-3.24;74.63;99330.97;5112468;28;20191;-68
2023/12/01 09:42:39;;;;;;;36.53;18.03;;;;;;;-3.20;74.62;99332.81;5118505;27;20200;-68
2023/12/01 09:45:09;;;;;;;39.17;19.70;;;;;;;-3.19;73.78;99339.53;5109427;27;20208;-68
2023/12/01 09:47:49;;;;;;;39.63;18.07;;;;;;;-3.25;73.84;99344.38;5119155;27;20196;-68
2023/12/01 09:50:17;;;;;;;32.63;16.77;;;;;;;-3.38;73.55;99339.78;5103594;27;20219;-66
2023/12/01 09:52:48;;;;;;;34.90;17.20;;;;;;;-3.56;73.83;99337.50;5111667;27;20212;-66
2023/12/01 09:55:16;;;;;;;36.00;18.07;;;;;;;-3.76;74.07;99336.81;5113091;27;20207;-68
2023/12/01 09:57:44;;;;;;;40.83;19.07;;;;;;;-3.81;74.95;99353.44;5109948;28;20574;-68
2023/12/01 10:00:12;;;;;;;38.67;18.90;;;;;;;-3.73;75.46;99360.44;5104453;28;20200;-69
2023/12/01 10:02:41;;;;;;;39.60;18.10;;;;;;;-3.71;75.20;99350.44;5110042;27;20200;-69
2023/12/01 10:05:13;;;;;;;41.60;20.53;;;;;;;-3.69;74.77;99352.19;5112670;27;20199;-69
2023/12/01 10:07:42;;;;;;;39.80;18.27;;;;;;;-3.71;75.70;99353.81;5109342;27;20639;-67
2023/12/01 10:10:20;;;;;;;42.73;18.03;;;;;;;-3.61;75.39;99362.50;5112000;27;20200;-66
2023/12/01 10:12:56;;;;;;;38.57;18.80;;;;;;;-3.51;75.72;99351.94;5111587;27;20204;-73
2023/12/01 10:15:25;;;;;;;39.97;17.60;;;;;;;-3.43;75.40;99349.66;5118834;27;20751;-70
2023/12/01 10:17:54;;;;;;;38.23;19.13;;;;;;;-3.38;75.75;99348.19;5120152;27;20650;-72
2023/12/01 10:20:23;;;;;;;45.10;20.00;;;;;;;-3.31;76.08;99344.22;5102520;27;20201;-72
2023/12/01 10:22:51;;;;;;;42.40;19.47;;;;;;;-3.19;75.98;99345.44;5110426;27;20649;-72
2023/12/01 10:25:19;;;;;;;41.03;20.20;;;;;;;-3.04;75.27;99347.59;5113890;27;20196;-72
2023/12/01 10:27:55;;;;;;;39.30;18.37;;;;;;;-2.96;74.44;99338.59;5112336;27;21547;-71
2023/12/01 10:30:23;;;;;;;38.37;19.13;;;;;;;-2.96;74.50;99338.59;5112882;27;20215;-72
2023/12/01 10:32:53;;;;;;;41.87;19.20;;;;;;;-2.95;74.53;99349.53;5108899;27;20253;-71
2023/12/01 10:35:24;;;;;;;41.20;19.37;;;;;;;-2.93;74.53;99353.81;5113195;27;20203;-74
2023/12/01 10:37:52;;;;;;;41.33;19.30;;;;;;;-2.92;74.87;99369.78;5103422;27;20219;-74
2023/12/01 10:40:20;;;;;;;47.23;20.17;;;;;;;-3.05;73.70;99361.00;5108412;27;20212;-71
2023/12/01 10:42:51;;;;;;;43.77;19.27;;;;;;;-3.09;74.41;99351.63;5117692;27;20534;-70
2023/12/01 10:45:20;;;;;;;40.40;19.10;;;;;;;-3.13;74.85;99351.47;5113487;27;20561;-73
2023/12/01 10:47:51;;;;;;;37.80;17.20;;;;;;;-3.16;74.76;99355.63;5107827;27;20202;-73
2023/12/01 10:50:20;;;;;;;37.13;17.70;;;;;;;-3.13;74.49;99354.84;5102408;27;20208;-69
2023/12/01 10:52:55;;;;;;;37.47;18.83;;;;;;;-3.11;75.01;99355.75;5112117;28;20207;-67
2023/12/01 10:55:24;;;;;;;38.97;18.57;;;;;;;-3.09;74.63;99355.78;5109696;28;20651;-71
2023/12/01 10:57:54;;;;;;;40.07;17.67;;;;;;;-3.07;74.73;99351.66;5108122;28;20211;-69
2023/12/01 11:00:30;;;;;;;40.73;18.17;;;;;;;-3.04;74.49;99350.09;5111157;28;20207;-69
2023/12/01 11:03:03;;;;;;;36.10;18.10;;;;;;;-3.05;74.28;99345.03;5109528;28;20216;-73
2023/12/01 11:05:33;;;;;;;36.07;19.07;;;;;;;-3.01;74.21;99350.22;5113966;28;20207;-72
2023/12/01 11:08:17;;;;;;;39.97;18.40;;;;;;;-3.06;74.26;99346.66;5100176;28;20565;-72
2023/12/01 11:10:55;;;;;;;41.90;19.33;;;;;;;-3.08;73.87;99345.78;5107611;28;20207;-71
2023/12/01 11:13:32;;;;;;;40.27;19.17;;;;;;;-3.11;74.56;99345.69;5104027;28;20231;-68
2023/12/01 11:16:01;;;;;;;39.40;18.90;;;;;;;-3.10;74.98;99352.41;5123131;28;20645;-73
2023/12/01 11:18:29;;;;;;;38.93;18.03;;;;;;;-3.13;74.65;99344.75;5109954;28;20193;-72
2023/12/01 11:20:57;;;;;;;42.83;19.40;;;;;;;-3.13;74.92;99347.28;5116866;28;20220;-71
2023/12/01 11:23:32;;;;;;;41.93;18.40;;;;;;;-3.08;75.38;99339.88;5115662;28;20283;-70
2023/12/01 11:26:07;;;;;;;38.23;18.10;;;;;;;-2.99;75.08;99337.63;5102252;28;20203;-67
2023/12/01 11:28:46;;;;;;;40.73;19.00;;;;;;;-2.95;74.67;99341.97;5094966;28;20262;-70